Time;durP1;ratioP1;P1;durP2;ratioP2;P2;SDS_P1;SDS_P2;PMS_P1;PMS_P2;Temp;Humidity;BMP_temperature;BMP_pressure;BME280_temperature;BME280_humidity;BME280_pressure;Samples;Min_cycle;Max_cycle;Signal;HPM_P1;HPM_P2
2023/08/21 00:00:42;;;;;;;14.60;7.00;;;23.80;99.90;;;;;;5064274;28;20235;-60
2023/08/21 00:03:10;;;;;;;11.68;6.35;;;23.80;99.90;;;;;;5071828;28;20204;-59
2023/08/21 00:05:38;;;;;;;9.82;6.68;;;23.70;99.90;;;;;;5063363;28;20224;-59
2023/08/21 00:08:06;;;;;;;10.10;7.10;;;23.70;99.90;;;;;;5072175;28;20205;-59
2023/08/21 00:10:34;;;;;;;10.50;6.80;;;23.70;99.90;;;;;;5071977;28;20247;-58
2023/08/21 00:13:02;;;;;;;9.32;6.57;;;23.70;99.90;;;;;;5071808;28;20233;-59
2023/08/21 00:15:31;;;;;;;7.50;6.57;;;23.60;99.90;;;;;;5062991;28;20225;-59
2023/08/21 00:18:00;;;;;;;11.35;7.47;;;23.60;99.90;;;;;;5071786;28;20262;-59
2023/08/21 00:20:28;;;;;;;14.65;7.32;;;23.60;99.90;;;;;;5070513;28;20622;-59
2023/08/21 00:22:56;;;;;;;14.77;7.65;;;23.50;99.90;;;;;;5052116;28;20205;-58
2023/08/21 00:25:24;;;;;;;13.95;7.40;;;23.50;99.90;;;;;;5051042;28;20765;-58
2023/08/21 00:27:52;;;;;;;12.25;7.75;;;23.50;99.90;;;;;;5051414;28;20743;-59
2023/08/21 00:30:20;;;;;;;10.10;6.95;;;23.50;99.90;;;;;;5056388;28;20244;-57
2023/08/21 00:32:49;;;;;;;10.43;7.38;;;23.50;99.90;;;;;;5063677;28;20287;-58
2023/08/21 00:35:17;;;;;;;12.45;7.68;;;23.40;99.90;;;;;;5071415;28;20228;-59
2023/08/21 00:37:46;;;;;;;16.85;7.15;;;23.40;99.90;;;;;;5071812;28;20208;-57
2023/08/21 00:40:14;;;;;;;10.35;8.02;;;23.40;99.90;;;;;;5071544;28;20212;-59
2023/08/21 00:42:42;;;;;;;11.75;7.70;;;23.40;99.90;;;;;;5071759;28;20251;-59
2023/08/21 00:45:11;;;;;;;15.13;7.53;;;23.30;99.90;;;;;;5071444;28;20324;-58
2023/08/21 00:47:39;;;;;;;13.57;8.35;;;23.40;99.90;;;;;;5071818;28;20211;-58
2023/08/21 00:50:09;;;;;;;18.25;8.68;;;23.30;99.90;;;;;;5071539;28;20283;-58
2023/08/21 00:52:37;;;;;;;14.15;8.02;;;23.30;99.90;;;;;;5071633;28;20638;-58
2023/08/21 00:55:05;;;;;;;11.18;7.88;;;23.30;99.90;;;;;;5070518;28;20216;-59
2023/08/21 00:57:33;;;;;;;12.98;7.65;;;23.30;99.90;;;;;;5063568;28;20289;-60
2023/08/21 01:00:02;;;;;;;12.75;7.72;;;23.30;99.90;;;;;;5071545;28;20283;-59
2023/08/21 01:02:29;;;;;;;12.90;8.43;;;23.30;99.90;;;;;;5063334;28;20242;-59
2023/08/21 01:04:57;;;;;;;10.20;7.75;;;23.20;99.90;;;;;;5070970;28;20232;-59
2023/08/21 01:07:26;;;;;;;13.93;8.40;;;23.20;99.90;;;;;;5071536;28;20215;-59
2023/08/21 01:10:03;;;;;;;10.07;8.85;;;23.20;99.90;;;;;;5071273;28;20208;-59
2023/08/21 01:12:34;;;;;;;17.17;9.32;;;23.10;99.90;;;;;;5060789;28;20288;-59
2023/08/21 01:15:03;;;;;;;15.02;8.75;;;23.10;99.90;;;;;;5050928;28;20236;-58
2023/08/21 01:17:31;;;;;;;10.52;8.80;;;23.00;99.90;;;;;;5051504;28;20255;-59
2023/08/21 01:19:59;;;;;;;15.27;9.27;;;23.00;99.90;;;;;;5051138;28;20205;-59
2023/08/21 01:22:30;;;;;;;16.55;8.95;;;23.00;99.90;;;;;;5068784;28;20630;-58
2023/08/21 01:24:59;;;;;;;11.82;8.75;;;23.00;99.90;;;;;;5070184;28;20221;-59
2023/08/21 01:27:27;;;;;;;11.98;8.65;;;23.00;99.90;;;;;;5071412;28;20213;-57
2023/08/21 01:29:55;;;;;;;9.48;8.55;;;22.90;99.90;;;;;;5071156;28;20623;-59
2023/08/21 01:32:27;;;;;;;13.05;9.18;;;22.90;99.90;;;;;;5071181;28;20236;-59
2023/08/21 01:34:56;;;;;;;10.07;9.10;;;22.90;99.90;;;;;;5069826;28;20700;-58
2023/08/21 01:37:25;;;;;;;9.98;9.10;;;22.80;99.90;;;;;;5053710;28;20237;-59
2023/08/21 01:39:52;;;;;;;16.63;9.02;;;22.80;99.90;;;;;;5067436;28;20288;-59
2023/08/21 01:42:22;;;;;;;10.82;9.10;;;22.80;99.90;;;;;;5066375;28;20228;-59
2023/08/21 01:44:50;;;;;;;13.73;9.25;;;22.80;99.90;;;;;;5069200;28;20249;-59
2023/08/21 01:47:18;;;;;;;13.05;8.88;;;22.80;99.90;;;;;;5062848;28;20201;-58
2023/08/21 01:49:45;;;;;;;14.57;9.23;;;22.80;99.90;;;;;;5062348;28;20236;-57
2023/08/21 01:52:13;;;;;;;14.23;9.57;;;22.70;99.90;;;;;;5062891;28;20201;-58
2023/08/21 01:54:42;;;;;;;10.18;9.15;;;22.70;99.90;;;;;;5053524;28;20780;-59
2023/08/21 01:57:10;;;;;;;11.80;9.23;;;22.70;99.90;;;;;;5054578;28;20693;-59
2023/08/21 01:59:39;;;;;;;11.45;9.70;;;22.60;99.90;;;;;;5057833;28;20720;-58
2023/08/21 02:02:07;;;;;;;13.60;9.57;;;22.60;99.90;;;;;;5067071;28;20232;-59
2023/08/21 02:04:35;;;;;;;13.02;9.70;;;22.60;99.90;;;;;;5054175;28;20233;-59
2023/08/21 02:07:02;;;;;;;12.85;9.90;;;22.60;99.90;;;;;;5054650;28;20670;-58
2023/08/21 02:09:30;;;;;;;15.73;9.10;;;22.50;99.90;;;;;;5054497;28;20190;-59
2023/08/21 02:11:58;;;;;;;11.45;9.13;;;22.60;99.90;;;;;;5054325;28;20654;-58
2023/08/21 02:14:26;;;;;;;13.90;9.13;;;22.50;99.90;;;;;;5053760;28;20315;-59
2023/08/21 02:16:55;;;;;;;12.77;9.25;;;22.50;99.90;;;;;;5054163;28;20644;-59
2023/08/21 02:19:23;;;;;;;11.00;9.07;;;22.50;99.90;;;;;;5054266;28;20292;-57
2023/08/21 02:21:51;;;;;;;13.85;9.60;;;22.40;99.90;;;;;;5058337;28;20197;-59
2023/08/21 02:24:19;;;;;;;9.57;8.52;;;22.40;99.90;;;;;;5070837;28;20271;-59
2023/08/21 02:26:47;;;;;;;15.45;9.27;;;22.40;99.90;;;;;;5065417;28;20216;-58
2023/08/21 02:29:15;;;;;;;16.33;9.80;;;22.40;99.90;;;;;;5066301;28;20237;-61
2023/08/21 02:31:42;;;;;;;9.98;9.02;;;22.30;99.90;;;;;;5065432;28;20258;-63
2023/08/21 02:34:12;;;;;;;15.45;10.15;;;22.30;99.90;;;;;;5073700;28;20278;-61
2023/08/21 02:36:40;;;;;;;14.07;9.63;;;22.30;99.90;;;;;;5073563;28;20197;-61
2023/08/21 02:39:08;;;;;;;10.35;8.57;;;22.30;99.90;;;;;;5066034;28;20651;-60
2023/08/21 02:41:36;;;;;;;12.57;9.93;;;22.20;99.90;;;;;;5073128;28;20674;-60
2023/08/21 02:44:04;;;;;;;10.75;9.85;;;22.20;99.90;;;;;;5073669;28;20232;-61
2023/08/21 02:46:33;;;;;;;13.02;9.52;;;22.20;99.90;;;;;;5073294;28;20305;-60
2023/08/21 02:49:01;;;;;;;17.67;9.48;;;22.20;99.90;;;;;;5073023;28;20215;-61
2023/08/21 02:51:31;;;;;;;10.55;8.77;;;22.20;99.90;;;;;;5063744;28;20201;-61
2023/08/21 02:53:58;;;;;;;12.45;9.18;;;22.20;99.90;;;;;;5071438;28;20220;-60
2023/08/21 02:56:26;;;;;;;10.60;9.70;;;22.20;99.90;;;;;;5064492;28;20730;-61
2023/08/21 02:58:54;;;;;;;16.38;9.45;;;22.20;99.90;;;;;;5073334;28;20300;-60
2023/08/21 03:01:22;;;;;;;12.20;9.43;;;22.10;99.90;;;;;;5064856;28;20288;-61
2023/08/21 03:03:50;;;;;;;12.25;9.48;;;22.20;99.90;;;;;;5067942;28;20285;-61
2023/08/21 03:06:18;;;;;;;18.20;9.45;;;22.10;99.90;;;;;;5070149;28;20201;-61
2023/08/21 03:08:47;;;;;;;13.65;9.50;;;22.10;99.90;;;;;;5073084;28;20204;-61
2023/08/21 03:11:15;;;;;;;16.95;10.23;;;22.10;99.90;;;;;;5073208;28;20205;-61
2023/08/21 03:13:43;;;;;;;14.75;9.38;;;22.10;99.90;;;;;;5073176;28;20250;-61
2023/08/21 03:16:11;;;;;;;15.00;9.25;;;22.00;99.90;;;;;;5072464;28;20315;-60
2023/08/21 03:18:55;;;;;;;19.83;10.10;;;22.00;99.90;;;;;;5072959;28;20676;-60
2023/08/21 03:21:23;;;;;;;12.07;9.07;;;22.00;99.90;;;;;;5064138;28;20205;-61
2023/08/21 03:23:55;;;;;;;12.45;9.82;;;22.00;99.90;;;;;;5052750;28;20209;-60
2023/08/21 03:26:23;;;;;;;10.55;9.45;;;22.00;99.90;;;;;;5052537;28;20346;-60
2023/08/21 03:28:51;;;;;;;11.57;10.45;;;22.00;99.90;;;;;;5052781;28;20289;-61
2023/08/21 03:31:19;;;;;;;10.57;9.25;;;21.90;99.90;;;;;;5061997;28;20640;-61
2023/08/21 03:33:47;;;;;;;12.90;9.45;;;21.90;99.90;;;;;;5072778;28;20215;-61
2023/08/21 03:36:15;;;;;;;16.75;9.85;;;21.80;99.90;;;;;;5072150;28;20340;-60
2023/08/21 03:38:43;;;;;;;12.65;9.40;;;21.80;99.90;;;;;;5064848;28;20233;-61
2023/08/21 03:41:12;;;;;;;13.95;10.07;;;21.80;99.90;;;;;;5064350;28;20202;-61
2023/08/21 03:43:40;;;;;;;12.13;9.73;;;21.80;99.90;;;;;;5052553;28;20259;-61
2023/08/21 03:46:08;;;;;;;17.75;10.13;;;21.80;99.90;;;;;;5051875;28;20245;-61
2023/08/21 03:48:36;;;;;;;13.52;9.45;;;21.80;99.90;;;;;;5052551;28;20259;-61
2023/08/21 03:51:04;;;;;;;12.80;8.85;;;21.80;99.90;;;;;;5052343;28;20297;-60
2023/08/21 03:53:32;;;;;;;11.32;9.07;;;21.80;99.90;;;;;;5052453;28;20205;-61
2023/08/21 03:55:59;;;;;;;12.65;9.50;;;21.80;99.90;;;;;;5051743;28;20225;-61
2023/08/21 03:58:29;;;;;;;11.05;9.48;;;21.80;99.90;;;;;;5052160;28;20236;-61
2023/08/21 04:00:57;;;;;;;11.63;9.35;;;21.80;99.90;;;;;;5059821;28;20284;-61
2023/08/21 04:03:25;;;;;;;13.98;9.88;;;21.70;99.90;;;;;;5070395;28;20228;-61
2023/08/21 04:05:54;;;;;;;16.10;10.00;;;21.70;99.90;;;;;;5071629;28;20793;-60
2023/08/21 04:08:22;;;;;;;17.10;9.82;;;21.60;99.90;;;;;;5072663;28;20216;-61
2023/08/21 04:10:52;;;;;;;13.55;9.70;;;21.60;99.90;;;;;;5071816;28;20638;-61
2023/08/21 04:13:20;;;;;;;11.77;9.40;;;21.60;99.90;;;;;;5071853;28;20740;-61
2023/08/21 04:15:49;;;;;;;11.43;9.48;;;21.60;99.90;;;;;;5071223;28;20673;-59
2023/08/21 04:18:17;;;;;;;14.23;9.63;;;21.60;99.90;;;;;;5071897;28;20703;-59
2023/08/21 04:21:06;;;;;;;16.33;10.32;;;21.50;99.90;;;;;;5065573;28;20223;-60
2023/08/21 04:23:34;;;;;;;10.40;9.40;;;21.50;99.90;;;;;;5051692;28;20206;-59
2023/08/21 04:26:02;;;;;;;12.80;10.32;;;21.50;99.90;;;;;;5054940;28;20221;-58
2023/08/21 04:28:31;;;;;;;12.93;9.00;;;21.50;99.90;;;;;;5062980;28;20228;-59
2023/08/21 04:31:00;;;;;;;9.10;7.25;;;21.40;99.90;;;;;;5070862;28;20211;-55
2023/08/21 04:33:29;;;;;;;8.55;6.85;;;21.50;99.90;;;;;;5063322;28;20200;-55
2023/08/21 04:35:57;;;;;;;8.63;7.82;;;21.60;99.90;;;;;;5070901;28;20235;-57
2023/08/21 04:38:25;;;;;;;10.73;8.50;;;21.70;99.90;;;;;;5071851;28;20269;-56
2023/08/21 04:40:53;;;;;;;10.20;8.32;;;21.90;99.90;;;;;;5071427;28;20624;-59
2023/08/21 04:43:21;;;;;;;17.85;9.57;;;22.00;99.90;;;;;;5071431;28;20673;-60
2023/08/21 04:45:50;;;;;;;12.98;9.82;;;22.10;99.90;;;;;;5070895;28;20308;-59
2023/08/21 04:48:20;;;;;;;10.32;9.27;;;22.10;99.90;;;;;;5071408;28;20251;-59
2023/08/21 04:50:48;;;;;;;13.90;9.43;;;22.20;99.90;;;;;;5071346;28;20220;-59
2023/08/21 04:53:16;;;;;;;12.85;9.43;;;22.20;99.90;;;;;;5071401;28;20209;-59
2023/08/21 04:55:44;;;;;;;14.20;8.88;;;22.20;99.90;;;;;;5070723;28;20227;-60
2023/08/21 04:58:12;;;;;;;16.30;9.40;;;22.20;99.90;;;;;;5071539;28;20742;-60
2023/08/21 05:00:39;;;;;;;12.68;9.13;;;22.20;99.90;;;;;;5071166;28;20243;-60
2023/08/21 05:03:08;;;;;;;13.85;8.23;;;22.20;99.90;;;;;;5071014;28;20204;-59
2023/08/21 05:05:38;;;;;;;10.95;9.73;;;22.20;99.90;;;;;;5070692;28;20229;-59
2023/08/21 05:08:06;;;;;;;11.90;9.25;;;22.20;99.90;;;;;;5069474;28;20230;-60
2023/08/21 05:10:34;;;;;;;10.38;9.35;;;22.20;99.90;;;;;;5062346;28;20618;-59
2023/08/21 05:13:02;;;;;;;13.75;8.60;;;22.20;99.90;;;;;;5073116;28;20231;-60
2023/08/21 05:15:30;;;;;;;13.05;8.43;;;22.20;99.90;;;;;;5074496;28;20327;-60
2023/08/21 05:17:58;;;;;;;9.25;8.30;;;22.20;99.90;;;;;;5075090;28;20251;-59
2023/08/21 05:20:26;;;;;;;15.25;8.80;;;22.20;99.90;;;;;;5073642;28;20743;-60
2023/08/21 05:22:55;;;;;;;17.60;9.13;;;22.30;99.90;;;;;;5054951;28;20241;-60
2023/08/21 05:25:23;;;;;;;13.50;9.15;;;22.20;99.90;;;;;;5054082;28;20648;-59
2023/08/21 05:27:51;;;;;;;9.75;8.45;;;22.20;99.90;;;;;;5054702;28;20292;-60
2023/08/21 05:30:19;;;;;;;11.20;9.32;;;22.20;99.90;;;;;;5054442;28;20316;-59
2023/08/21 05:32:47;;;;;;;9.82;8.68;;;22.20;99.90;;;;;;5054709;28;20288;-59
2023/08/21 05:35:15;;;;;;;15.32;8.65;;;22.20;99.90;;;;;;5054262;28;20235;-59
2023/08/21 05:37:42;;;;;;;16.63;8.95;;;22.20;99.90;;;;;;5054767;28;20212;-60
2023/08/21 05:40:12;;;;;;;9.45;8.48;;;22.20;99.90;;;;;;5054130;28;20680;-59
2023/08/21 05:42:40;;;;;;;11.27;8.75;;;22.20;99.90;;;;;;5054319;28;20296;-60
2023/08/21 05:45:09;;;;;;;10.45;8.40;;;22.20;99.90;;;;;;5054195;28;20221;-60
2023/08/21 05:47:36;;;;;;;12.07;8.80;;;22.30;99.90;;;;;;5054350;28;20748;-59
2023/08/21 05:50:05;;;;;;;14.00;9.20;;;22.30;99.90;;;;;;5054186;28;20201;-60
2023/08/21 05:52:33;;;;;;;12.40;9.45;;;22.40;99.90;;;;;;5054335;28;20246;-60
2023/08/21 05:55:01;;;;;;;12.65;8.20;;;22.40;99.90;;;;;;5053645;28;20271;-60
2023/08/21 05:57:30;;;;;;;12.05;9.15;;;22.40;99.90;;;;;;5054091;28;20282;-59
2023/08/21 05:59:58;;;;;;;17.73;9.88;;;22.50;99.90;;;;;;5054117;28;20236;-59
2023/08/21 06:02:26;;;;;;;13.38;9.85;;;22.40;99.90;;;;;;5054079;28;20209;-59
2023/08/21 06:04:54;;;;;;;15.05;10.90;;;22.30;99.90;;;;;;5053652;28;20317;-59
2023/08/21 06:07:22;;;;;;;13.93;9.77;;;22.30;99.90;;;;;;5053033;28;20232;-59
2023/08/21 06:09:50;;;;;;;19.17;11.05;;;22.20;99.90;;;;;;5052887;28;20695;-60
2023/08/21 06:12:19;;;;;;;13.57;9.32;;;22.10;99.90;;;;;;5054014;28;20707;-60
2023/08/21 06:14:49;;;;;;;12.63;10.20;;;22.20;99.90;;;;;;5053755;28;20760;-59
2023/08/21 06:17:16;;;;;;;13.75;9.65;;;22.30;99.90;;;;;;5053926;28;20261;-56
2023/08/21 06:19:44;;;;;;;11.75;9.52;;;22.40;99.90;;;;;;5053867;28;20205;-57
2023/08/21 06:22:12;;;;;;;11.50;10.38;;;22.50;99.90;;;;;;5069194;28;20307;-59
2023/08/21 06:24:41;;;;;;;11.77;9.95;;;22.60;99.90;;;;;;5072654;28;20290;-57
2023/08/21 06:27:09;;;;;;;12.48;9.35;;;22.70;99.90;;;;;;5073721;28;20281;-58
2023/08/21 06:29:40;;;;;;;12.85;11.20;;;22.80;99.90;;;;;;5073976;28;20217;-57
2023/08/21 06:32:09;;;;;;;12.35;9.60;;;22.90;99.90;;;;;;5073982;28;20213;-56
2023/08/21 06:34:37;;;;;;;10.70;9.60;;;22.90;99.90;;;;;;5073441;28;20224;-58
2023/08/21 06:37:05;;;;;;;12.77;10.23;;;23.00;99.90;;;;;;5073674;28;20228;-63
2023/08/21 06:39:33;;;;;;;11.82;10.63;;;23.00;99.90;;;;;;5073816;28;20205;-63
2023/08/21 06:42:01;;;;;;;12.95;10.63;;;23.00;99.90;;;;;;5073340;28;20244;-63
2023/08/21 06:44:29;;;;;;;11.73;10.32;;;23.10;99.90;;;;;;5073371;28;20284;-63
2023/08/21 06:46:57;;;;;;;14.45;9.85;;;23.10;99.90;;;;;;5072080;28;20299;-63
2023/08/21 06:49:26;;;;;;;11.73;9.73;;;23.20;99.90;;;;;;5073258;28;20211;-63
2023/08/21 06:51:54;;;;;;;13.25;10.15;;;23.20;99.90;;;;;;5073599;28;20632;-62
2023/08/21 06:54:22;;;;;;;11.77;10.10;;;23.30;99.90;;;;;;5073235;28;20266;-63
2023/08/21 06:56:50;;;;;;;13.05;9.65;;;23.30;99.90;;;;;;5073201;28;20256;-63
2023/08/21 06:59:18;;;;;;;10.50;9.27;;;23.40;99.90;;;;;;5073301;28;20265;-63
2023/08/21 07:01:46;;;;;;;10.35;9.35;;;23.40;99.90;;;;;;5072941;28;20233;-63
2023/08/21 07:04:14;;;;;;;11.13;10.05;;;23.50;99.90;;;;;;5073272;28;20264;-63
2023/08/21 07:06:44;;;;;;;14.77;10.02;;;23.60;99.90;;;;;;5072975;28;20204;-63
2023/08/21 07:09:11;;;;;;;13.40;9.80;;;23.70;99.90;;;;;;5073418;28;20232;-64
2023/08/21 07:11:39;;;;;;;11.95;9.82;;;23.70;99.90;;;;;;5073004;28;20236;-64
2023/08/21 07:14:08;;;;;;;10.85;9.68;;;23.80;99.90;;;;;;5073021;28;20254;-63
2023/08/21 07:16:35;;;;;;;11.43;9.73;;;23.80;99.90;;;;;;5072495;28;20680;-64
2023/08/21 07:19:03;;;;;;;10.82;9.45;;;23.90;99.90;;;;;;5073064;28;20208;-63
2023/08/21 07:21:34;;;;;;;11.68;9.35;;;24.00;99.90;;;;;;5062713;28;20638;-63
2023/08/21 07:24:03;;;;;;;13.93;9.32;;;24.00;99.90;;;;;;5052883;28;20712;-63
2023/08/21 07:26:31;;;;;;;14.23;9.68;;;24.00;99.90;;;;;;5052207;28;20201;-63
2023/08/21 07:28:59;;;;;;;9.82;8.82;;;24.10;99.90;;;;;;5052553;28;20237;-63
2023/08/21 07:31:27;;;;;;;18.08;8.55;;;24.20;99.90;;;;;;5057667;28;20204;-63
2023/08/21 07:33:55;;;;;;;14.57;8.80;;;24.20;99.90;;;;;;5072689;28;20206;-63
2023/08/21 07:36:23;;;;;;;10.15;8.98;;;24.30;99.90;;;;;;5071689;28;20239;-63
2023/08/21 07:38:51;;;;;;;10.32;9.32;;;24.40;99.90;;;;;;5072908;28;20204;-63
2023/08/21 07:41:20;;;;;;;11.63;9.00;;;24.40;99.90;;;;;;5072265;28;20213;-63
2023/08/21 07:43:49;;;;;;;9.35;8.52;;;24.50;99.90;;;;;;5072011;28;20209;-63
2023/08/21 07:46:18;;;;;;;13.40;8.68;;;24.60;99.90;;;;;;5071774;28;20629;-62
2023/08/21 07:48:46;;;;;;;12.32;8.50;;;24.70;99.90;;;;;;5072586;28;20295;-63
2023/08/21 07:51:14;;;;;;;9.40;8.40;;;24.80;99.90;;;;;;5072177;28;20565;-63
2023/08/21 07:53:42;;;;;;;11.10;8.82;;;24.90;99.90;;;;;;5072365;28;20228;-62
2023/08/21 07:56:10;;;;;;;13.05;9.05;;;24.90;99.90;;;;;;5071652;28;20282;-62
2023/08/21 07:58:40;;;;;;;12.95;8.48;;;25.00;99.90;;;;;;5072491;28;20310;-62
2023/08/21 08:01:07;;;;;;;9.63;8.43;;;25.10;99.90;;;;;;5071071;28;20774;-62
2023/08/21 08:03:36;;;;;;;15.05;8.23;;;25.10;99.90;;;;;;5071658;28;20207;-62
2023/08/21 08:06:04;;;;;;;9.27;8.35;;;25.30;99.90;;;;;;5071350;28;20240;-62
2023/08/21 08:08:34;;;;;;;9.20;8.15;;;25.30;99.90;;;;;;5071755;28;20262;-62
2023/08/21 08:11:03;;;;;;;11.05;8.43;;;25.40;99.90;;;;;;5071864;28;20209;-63
2023/08/21 08:13:32;;;;;;;10.80;8.15;;;25.50;99.90;;;;;;5071167;28;20244;-63
2023/08/21 08:16:01;;;;;;;9.23;8.27;;;25.60;99.90;;;;;;5071144;28;20264;-63
2023/08/21 08:18:29;;;;;;;9.63;7.93;;;25.70;99.90;;;;;;5067701;28;20233;-62
2023/08/21 08:20:57;;;;;;;12.68;8.13;;;25.70;99.90;;;;;;5056137;28;20258;-63
2023/08/21 08:23:25;;;;;;;9.20;8.30;;;25.80;99.90;;;;;;5071861;28;20228;-62
2023/08/21 08:25:53;;;;;;;8.60;7.75;;;25.90;99.90;;;;;;5071480;28;20224;-62
2023/08/21 08:28:21;;;;;;;11.30;8.02;;;26.00;99.90;;;;;;5071735;28;20247;-62
2023/08/21 08:30:49;;;;;;;9.73;8.20;;;26.10;99.90;;;;;;5070437;28;20204;-63
2023/08/21 08:33:18;;;;;;;11.20;8.85;;;26.10;99.90;;;;;;5063517;28;20648;-63
2023/08/21 08:35:46;;;;;;;9.38;8.38;;;26.20;99.90;;;;;;5062564;28;20417;-64
2023/08/21 08:38:14;;;;;;;10.82;8.25;;;26.40;99.90;;;;;;5071674;28;20281;-63
2023/08/21 08:40:45;;;;;;;9.07;8.18;;;26.40;99.90;;;;;;5071512;28;20635;-63
2023/08/21 08:43:13;;;;;;;10.52;8.63;;;26.50;99.90;;;;;;5071759;28;20303;-63
2023/08/21 08:45:41;;;;;;;9.13;8.23;;;26.60;99.90;;;;;;5070222;28;20315;-65
2023/08/21 08:48:09;;;;;;;10.73;7.85;;;26.70;99.90;;;;;;5067571;28;20258;-63
2023/08/21 08:50:39;;;;;;;9.07;8.20;;;26.80;99.90;;;;;;5078297;28;20211;-62
2023/08/21 08:53:07;;;;;;;8.68;7.97;;;27.00;99.90;;;;;;5078258;28;20239;-64
2023/08/21 08:55:43;;;;;;;10.10;7.53;;;27.10;99.90;;;;;;5077746;28;20227;-62
2023/08/21 08:58:11;;;;;;;9.45;7.93;;;27.20;99.90;;;;;;5077790;28;20723;-63
2023/08/21 09:00:39;;;;;;;9.02;8.13;;;27.30;99.90;;;;;;5077876;28;20208;-63
2023/08/21 09:03:08;;;;;;;10.93;8.02;;;27.50;99.90;;;;;;5077750;28;20204;-62
2023/08/21 09:05:36;;;;;;;11.35;8.27;;;27.50;99.90;;;;;;5077754;28;20240;-63
2023/08/21 09:08:10;;;;;;;8.52;7.10;;;27.60;99.90;;;;;;5077887;28;20212;-62
2023/08/21 09:10:38;;;;;;;12.43;7.90;;;27.70;99.90;;;;;;5077822;28;20231;-64
2023/08/21 09:13:11;;;;;;;9.75;8.18;;;27.90;99.90;;;;;;5077776;28;20210;-64
2023/08/21 09:15:39;;;;;;;13.63;8.05;;;28.00;99.90;;;;;;5077702;28;20225;-63
2023/08/21 09:18:10;;;;;;;9.00;8.10;;;28.10;99.90;;;;;;5077982;28;20574;-63
2023/08/21 09:20:38;;;;;;;8.27;7.57;;;28.20;99.90;;;;;;5075317;28;20213;-63
2023/08/21 09:23:07;;;;;;;9.20;8.25;;;28.40;99.90;;;;;;5057726;28;20258;-63
2023/08/21 09:25:35;;;;;;;11.02;8.50;;;28.50;99.90;;;;;;5057302;28;20229;-63
2023/08/21 09:28:06;;;;;;;9.68;7.78;;;28.70;99.90;;;;;;5057444;28;20622;-62
2023/08/21 09:30:47;;;;;;;8.50;7.55;;;28.80;99.90;;;;;;5057626;28;20898;-63
2023/08/21 09:33:18;;;;;;;8.18;7.40;;;29.00;99.90;;;;;;5061059;28;20283;-62
2023/08/21 09:35:46;;;;;;;9.13;7.45;;;29.00;99.90;;;;;;5075732;28;20256;-62
2023/08/21 09:38:15;;;;;;;8.65;7.40;;;29.20;99.90;;;;;;5069451;28;20311;-62
2023/08/21 09:40:43;;;;;;;8.38;7.60;;;29.30;99.90;;;;;;5077858;28;20208;-63
2023/08/21 09:43:12;;;;;;;7.75;7.07;;;29.40;99.90;;;;;;5077708;28;20212;-63
2023/08/21 09:45:40;;;;;;;8.75;7.65;;;29.50;99.90;;;;;;5077648;28;20294;-63
2023/08/21 09:48:08;;;;;;;9.40;7.35;;;29.60;99.90;;;;;;5076632;28;20196;-63
2023/08/21 09:50:38;;;;;;;14.27;7.60;;;29.70;99.90;;;;;;5067384;28;20231;-63
2023/08/21 09:53:07;;;;;;;9.50;7.22;;;29.80;99.90;;;;;;5059272;28;20251;-63
2023/08/21 09:55:36;;;;;;;9.73;6.80;;;29.90;99.90;;;;;;5073889;28;20217;-63
2023/08/21 09:58:04;;;;;;;11.35;7.43;;;30.10;99.90;;;;;;5063561;28;20217;-63
2023/08/21 10:00:34;;;;;;;7.93;7.22;;;30.40;99.90;;;;;;5054490;28;20248;-63
2023/08/21 10:03:03;;;;;;;9.35;6.82;;;30.60;99.90;;;;;;5053923;28;20556;-63
2023/08/21 10:05:32;;;;;;;10.50;7.35;;;30.80;99.90;;;;;;5054207;28;20302;-63
2023/08/21 10:08:01;;;;;;;8.63;6.57;;;30.90;99.90;;;;;;5054253;28;20292;-63
2023/08/21 10:10:30;;;;;;;7.72;6.35;;;31.10;99.90;;;;;;5059747;28;20291;-63
2023/08/21 10:12:59;;;;;;;7.32;6.38;;;31.40;99.90;;;;;;5072798;28;20219;-63
2023/08/21 10:15:28;;;;;;;7.70;6.82;;;31.60;99.90;;;;;;5063391;28;20720;-63
2023/08/21 10:17:56;;;;;;;7.85;7.10;;;31.90;99.90;;;;;;5053799;28;20315;-63
2023/08/21 10:20:25;;;;;;;7.20;6.50;;;32.10;99.90;;;;;;5064045;28;20586;-63
2023/08/21 10:22:54;;;;;;;7.25;6.57;;;32.20;99.90;;;;;;5067837;28;20221;-63
2023/08/21 10:25:25;;;;;;;7.53;6.43;;;32.40;99.90;;;;;;5055709;28;20222;-63
2023/08/21 10:28:02;;;;;;;7.85;6.53;;;32.60;99.90;;;;;;5053938;28;20246;-63
2023/08/21 10:30:30;;;;;;;11.85;6.55;;;32.80;99.90;;;;;;5054316;28;20271;-63
2023/08/21 10:32:59;;;;;;;8.77;6.68;;;32.90;99.90;;;;;;5053599;28;20601;-63
2023/08/21 10:35:30;;;;;;;11.23;6.50;;;33.00;99.90;;;;;;5053513;28;20232;-63
2023/08/21 10:38:08;;;;;;;6.72;6.22;;;33.30;99.90;;;;;;5053615;28;20263;-63
2023/08/21 10:40:36;;;;;;;6.35;5.75;;;33.50;99.90;;;;;;5053853;28;20655;-64
2023/08/21 10:43:06;;;;;;;6.97;5.88;;;33.60;99.90;;;;;;5053771;28;20300;-63
2023/08/21 10:45:34;;;;;;;6.90;5.30;;;33.70;99.90;;;;;;5052847;28;20225;-63
2023/08/21 10:48:01;;;;;;;5.55;4.72;;;33.80;99.90;;;;;;5054100;28;21460;-63
2023/08/21 10:50:29;;;;;;;6.70;5.55;;;34.00;99.90;;;;;;5064479;28;20216;-63
2023/08/21 10:52:59;;;;;;;6.45;4.40;;;34.20;99.90;;;;;;5061484;28;20232;-63
2023/08/21 10:55:27;;;;;;;7.30;4.93;;;34.30;99.90;;;;;;5053568;28;20225;-63
2023/08/21 10:57:55;;;;;;;4.57;4.28;;;34.50;99.90;;;;;;5053372;28;20644;-63
2023/08/21 11:00:24;;;;;;;5.00;4.45;;;34.60;99.90;;;;;;5053458;28;20233;-62
2023/08/21 11:02:52;;;;;;;5.07;4.10;;;34.80;99.90;;;;;;5053098;28;20244;-63
2023/08/21 11:05:20;;;;;;;6.95;4.38;;;34.90;99.90;;;;;;5065916;28;20239;-62
2023/08/21 11:07:48;;;;;;;3.85;3.55;;;35.10;99.90;;;;;;5065750;28;20196;-62
2023/08/21 11:10:17;;;;;;;3.95;3.65;;;35.30;99.90;;;;;;5071801;28;20200;-63
2023/08/21 11:12:49;;;;;;;4.15;3.72;;;35.30;99.90;;;;;;5064104;28;20239;-63
2023/08/21 11:15:17;;;;;;;4.50;4.10;;;35.40;99.90;;;;;;5072476;28;20229;-63
2023/08/21 11:17:56;;;;;;;4.25;3.75;;;35.60;99.90;;;;;;5072799;28;20208;-63
2023/08/21 11:20:28;;;;;;;4.85;4.10;;;35.80;99.90;;;;;;5071846;28;20235;-63
2023/08/21 11:22:58;;;;;;;3.92;3.55;;;36.00;99.90;;;;;;5052961;28;20209;-64
2023/08/21 11:25:27;;;;;;;8.25;3.55;;;36.20;99.90;;;;;;5052717;28;20308;-64
2023/08/21 11:27:55;;;;;;;6.18;3.47;;;36.40;99.90;;;;;;5052804;28;20209;-63
2023/08/21 11:30:23;;;;;;;5.22;2.80;;;36.60;99.90;;;;;;5052797;28;20284;-63
2023/08/21 11:33:08;;;;;;;3.05;2.88;;;36.80;99.90;;;;;;5052536;28;20205;-63
2023/08/21 11:35:36;;;;;;;2.70;2.50;;;36.90;99.90;;;;;;5052625;28;20220;-63
2023/08/21 11:38:04;;;;;;;2.75;2.33;;;37.00;99.90;;;;;;5052439;28;20240;-63
2023/08/21 11:40:35;;;;;;;7.00;3.38;;;37.10;98.70;;;;;;5052661;28;20266;-63
2023/08/21 11:43:05;;;;;;;5.13;2.78;;;37.00;99.00;;;;;;5052373;28;20209;-63
2023/08/21 11:45:33;;;;;;;3.83;3.25;;;37.20;99.90;;;;;;5052305;28;20229;-64
2023/08/21 11:48:22;;;;;;;2.83;2.53;;;37.30;99.90;;;;;;5052384;28;20208;-63
2023/08/21 11:50:50;;;;;;;3.30;3.00;;;37.50;99.70;;;;;;5052596;28;20292;-63
2023/08/21 11:53:31;;;;;;;2.75;2.65;;;37.50;98.70;;;;;;5052224;28;20634;-63
2023/08/21 11:55:59;;;;;;;2.30;2.20;;;37.60;98.00;;;;;;5052294;28;20322;-63
2023/08/21 11:58:27;;;;;;;2.17;2.03;;;37.80;98.40;;;;;;5052068;28;20837;-63
2023/08/21 12:00:55;;;;;;;4.63;2.20;;;37.90;96.60;;;;;;5052142;28;20704;-63
2023/08/21 12:03:25;;;;;;;1.55;1.55;;;37.90;95.90;;;;;;5052062;28;20229;-63
2023/08/21 12:05:53;;;;;;;3.47;1.90;;;37.80;94.00;;;;;;5051733;28;20233;-63
2023/08/21 12:08:20;;;;;;;1.80;1.80;;;37.80;94.80;;;;;;5051908;28;20304;-63
2023/08/21 12:10:52;;;;;;;2.15;1.80;;;37.90;95.20;;;;;;5052349;28;20278;-62
2023/08/21 12:13:20;;;;;;;2.38;1.70;;;38.00;94.00;;;;;;5051950;28;20240;-64
2023/08/21 12:15:47;;;;;;;2.47;2.33;;;38.20;93.60;;;;;;5051698;28;20229;-63
2023/08/21 12:18:15;;;;;;;2.20;2.10;;;38.30;94.50;;;;;;5051770;28;20217;-63
2023/08/21 12:20:45;;;;;;;2.30;1.90;;;38.50;94.00;;;;;;5055229;28;20242;-64
2023/08/21 12:23:13;;;;;;;2.90;1.88;;;38.40;94.30;;;;;;5071100;28;20753;-63
2023/08/21 12:25:41;;;;;;;3.65;1.50;;;38.50;92.70;;;;;;5071758;28;20274;-63
2023/08/21 12:28:09;;;;;;;1.60;1.50;;;38.60;92.50;;;;;;5071873;28;20200;-64
2023/08/21 12:30:37;;;;;;;2.30;1.63;;;38.60;91.80;;;;;;5072035;28;20262;-63
2023/08/21 12:33:05;;;;;;;1.40;1.27;;;38.80;91.10;;;;;;5071656;28;20258;-64
2023/08/21 12:35:51;;;;;;;2.58;1.30;;;38.90;90.10;;;;;;5071763;28;20666;-63
2023/08/21 12:38:20;;;;;;;1.83;1.30;;;39.10;90.10;;;;;;5071660;28;20208;-63
2023/08/21 12:40:48;;;;;;;3.60;1.25;;;39.00;91.00;;;;;;5071758;28;20224;-63
2023/08/21 12:43:17;;;;;;;1.23;1.13;;;38.90;91.10;;;;;;5071742;28;20208;-63
2023/08/21 12:45:45;;;;;;;3.20;1.42;;;38.80;87.00;;;;;;5071236;28;20224;-63
2023/08/21 12:48:13;;;;;;;4.53;1.48;;;38.90;87.80;;;;;;5071748;28;20254;-63